sensor_id;sensor_type;location;lat;lon;timestamp;P1;durP1;ratioP1;P2;durP2;ratioP2
80732;SDS011;70130;44.534;18.678;2023-05-23T00:01:20;13.52;;;8.35;;
80732;SDS011;70130;44.534;18.678;2023-05-23T00:03:47;12.45;;;8.10;;
80732;SDS011;70130;44.534;18.678;2023-05-23T00:06:13;13.40;;;9.63;;
80732;SDS011;70130;44.534;18.678;2023-05-23T00:08:39;10.25;;;7.90;;
80732;SDS011;70130;44.534;18.678;2023-05-23T00:11:04;11.10;;;7.65;;
80732;SDS011;70130;44.534;18.678;2023-05-23T00:13:30;12.70;;;7.97;;
80732;SDS011;70130;44.534;18.678;2023-05-23T00:15:59;10.63;;;8.20;;
80732;SDS011;70130;44.534;18.678;2023-05-23T00:18:25;10.52;;;7.45;;
80732;SDS011;70130;44.534;18.678;2023-05-23T00:20:50;13.90;;;7.88;;
80732;SDS011;70130;44.534;18.678;2023-05-23T00:23:16;12.75;;;7.85;;
80732;SDS011;70130;44.534;18.678;2023-05-23T00:25:45;10.63;;;7.90;;
80732;SDS011;70130;44.534;18.678;2023-05-23T00:28:16;10.52;;;7.10;;
80732;SDS011;70130;44.534;18.678;2023-05-23T00:30:42;12.27;;;8.50;;
80732;SDS011;70130;44.534;18.678;2023-05-23T00:33:08;12.75;;;8.05;;
80732;SDS011;70130;44.534;18.678;2023-05-23T00:35:34;12.15;;;7.53;;
80732;SDS011;70130;44.534;18.678;2023-05-23T00:37:59;10.68;;;7.80;;
80732;SDS011;70130;44.534;18.678;2023-05-23T00:40:26;12.98;;;8.65;;
80732;SDS011;70130;44.534;18.678;2023-05-23T00:42:52;14.35;;;8.57;;
80732;SDS011;70130;44.534;18.678;2023-05-23T00:45:18;12.65;;;8.10;;
80732;SDS011;70130;44.534;18.678;2023-05-23T00:47:44;13.93;;;8.18;;
80732;SDS011;70130;44.534;18.678;2023-05-23T00:50:12;13.27;;;8.80;;
80732;SDS011;70130;44.534;18.678;2023-05-23T00:52:41;13.48;;;9.07;;
80732;SDS011;70130;44.534;18.678;2023-05-23T00:55:09;13.27;;;8.88;;
80732;SDS011;70130;44.534;18.678;2023-05-23T00:57:36;10.15;;;7.72;;
80732;SDS011;70130;44.534;18.678;2023-05-23T01:00:07;11.43;;;7.57;;
80732;SDS011;70130;44.534;18.678;2023-05-23T01:02:42;13.60;;;8.20;;
80732;SDS011;70130;44.534;18.678;2023-05-23T01:05:10;10.32;;;7.40;;
80732;SDS011;70130;44.534;18.678;2023-05-23T01:07:42;14.13;;;8.05;;
80732;SDS011;70130;44.534;18.678;2023-05-23T01:10:09;10.55;;;7.57;;
80732;SDS011;70130;44.534;18.678;2023-05-23T01:18:09;11.55;;;7.20;;
80732;SDS011;70130;44.534;18.678;2023-05-23T01:20:42;10.80;;;7.20;;
80732;SDS011;70130;44.534;18.678;2023-05-23T01:23:24;10.90;;;7.28;;
80732;SDS011;70130;44.534;18.678;2023-05-23T01:26:17;10.80;;;6.88;;
80732;SDS011;70130;44.534;18.678;2023-05-23T01:29:31;11.98;;;7.90;;
80732;SDS011;70130;44.534;18.678;2023-05-23T01:31:52;12.15;;;7.80;;
80732;SDS011;70130;44.534;18.678;2023-05-23T01:34:20;12.25;;;8.32;;
80732;SDS011;70130;44.534;18.678;2023-05-23T01:36:48;9.55;;;7.47;;
80732;SDS011;70130;44.534;18.678;2023-05-23T01:39:18;11.40;;;8.13;;
80732;SDS011;70130;44.534;18.678;2023-05-23T01:41:44;10.50;;;7.13;;
80732;SDS011;70130;44.534;18.678;2023-05-23T01:44:10;10.88;;;6.97;;
80732;SDS011;70130;44.534;18.678;2023-05-23T01:46:35;13.68;;;7.93;;
80732;SDS011;70130;44.534;18.678;2023-05-23T01:49:04;12.80;;;8.20;;
80732;SDS011;70130;44.534;18.678;2023-05-23T01:51:32;10.75;;;7.47;;
80732;SDS011;70130;44.534;18.678;2023-05-23T01:53:59;10.80;;;7.82;;
80732;SDS011;70130;44.534;18.678;2023-05-23T01:56:26;8.52;;;7.63;;
80732;SDS011;70130;44.534;18.678;2023-05-23T01:58:52;11.80;;;7.32;;
80732;SDS011;70130;44.534;18.678;2023-05-23T02:01:19;11.32;;;7.53;;
80732;SDS011;70130;44.534;18.678;2023-05-23T02:03:45;11.73;;;7.50;;
80732;SDS011;70130;44.534;18.678;2023-05-23T02:06:11;10.07;;;7.53;;
80732;SDS011;70130;44.534;18.678;2023-05-23T02:08:36;10.73;;;7.45;;
80732;SDS011;70130;44.534;18.678;2023-05-23T02:11:02;9.77;;;6.60;;
80732;SDS011;70130;44.534;18.678;2023-05-23T02:13:28;11.48;;;6.95;;
80732;SDS011;70130;44.534;18.678;2023-05-23T02:15:54;10.82;;;7.18;;
80732;SDS011;70130;44.534;18.678;2023-05-23T02:18:20;12.05;;;6.90;;
80732;SDS011;70130;44.534;18.678;2023-05-23T02:20:48;10.23;;;7.35;;
80732;SDS011;70130;44.534;18.678;2023-05-23T02:23:14;11.50;;;7.68;;
80732;SDS011;70130;44.534;18.678;2023-05-23T02:25:40;15.68;;;8.75;;
80732;SDS011;70130;44.534;18.678;2023-05-23T02:28:06;9.88;;;7.55;;
80732;SDS011;70130;44.534;18.678;2023-05-23T02:30:31;11.55;;;7.20;;
80732;SDS011;70130;44.534;18.678;2023-05-23T02:32:57;12.13;;;7.68;;
80732;SDS011;70130;44.534;18.678;2023-05-23T02:35:23;12.75;;;7.32;;
80732;SDS011;70130;44.534;18.678;2023-05-23T02:37:49;10.38;;;7.22;;
80732;SDS011;70130;44.534;18.678;2023-05-23T02:40:14;11.20;;;7.13;;
80732;SDS011;70130;44.534;18.678;2023-05-23T02:42:40;12.02;;;6.82;;
80732;SDS011;70130;44.534;18.678;2023-05-23T02:45:06;7.93;;;6.10;;
80732;SDS011;70130;44.534;18.678;2023-05-23T02:47:33;9.10;;;6.72;;
80732;SDS011;70130;44.534;18.678;2023-05-23T02:49:58;10.68;;;6.88;;
80732;SDS011;70130;44.534;18.678;2023-05-23T02:52:24;9.50;;;6.50;;
80732;SDS011;70130;44.534;18.678;2023-05-23T02:54:50;7.80;;;6.13;;
80732;SDS011;70130;44.534;18.678;2023-05-23T02:57:16;10.30;;;6.93;;
80732;SDS011;70130;44.534;18.678;2023-05-23T02:59:42;9.43;;;7.30;;
80732;SDS011;70130;44.534;18.678;2023-05-23T03:02:08;9.88;;;6.15;;
80732;SDS011;70130;44.534;18.678;2023-05-23T03:04:33;9.38;;;6.07;;
80732;SDS011;70130;44.534;18.678;2023-05-23T03:06:59;9.02;;;6.35;;
80732;SDS011;70130;44.534;18.678;2023-05-23T03:09:25;11.30;;;6.75;;
80732;SDS011;70130;44.534;18.678;2023-05-23T03:11:51;7.80;;;6.35;;
80732;SDS011;70130;44.534;18.678;2023-05-23T03:14:16;6.32;;;5.50;;
80732;SDS011;70130;44.534;18.678;2023-05-23T03:16:42;7.18;;;6.10;;
80732;SDS011;70130;44.534;18.678;2023-05-23T03:19:08;7.80;;;5.95;;
80732;SDS011;70130;44.534;18.678;2023-05-23T03:21:33;7.38;;;5.75;;
80732;SDS011;70130;44.534;18.678;2023-05-23T03:24:00;7.63;;;6.18;;
80732;SDS011;70130;44.534;18.678;2023-05-23T03:26:28;9.23;;;6.78;;
80732;SDS011;70130;44.534;18.678;2023-05-23T03:28:55;9.02;;;6.65;;
80732;SDS011;70130;44.534;18.678;2023-05-23T03:31:20;13.38;;;8.00;;
80732;SDS011;70130;44.534;18.678;2023-05-23T03:33:46;8.25;;;6.30;;
80732;SDS011;70130;44.534;18.678;2023-05-23T03:36:12;10.75;;;6.38;;
80732;SDS011;70130;44.534;18.678;2023-05-23T03:38:37;8.63;;;6.03;;
80732;SDS011;70130;44.534;18.678;2023-05-23T03:41:03;10.68;;;6.18;;
80732;SDS011;70130;44.534;18.678;2023-05-23T03:43:29;10.23;;;6.50;;
80732;SDS011;70130;44.534;18.678;2023-05-23T03:45:55;9.45;;;6.40;;
80732;SDS011;70130;44.534;18.678;2023-05-23T03:48:21;9.15;;;7.05;;
80732;SDS011;70130;44.534;18.678;2023-05-23T03:50:49;8.30;;;6.07;;
80732;SDS011;70130;44.534;18.678;2023-05-23T03:53:14;9.30;;;6.65;;
80732;SDS011;70130;44.534;18.678;2023-05-23T03:55:40;7.72;;;6.68;;
80732;SDS011;70130;44.534;18.678;2023-05-23T03:58:06;9.02;;;6.57;;
80732;SDS011;70130;44.534;18.678;2023-05-23T04:00:32;10.57;;;6.88;;
80732;SDS011;70130;44.534;18.678;2023-05-23T04:02:59;10.40;;;6.95;;
80732;SDS011;70130;44.534;18.678;2023-05-23T04:05:24;8.82;;;6.97;;
80732;SDS011;70130;44.534;18.678;2023-05-23T04:07:51;17.98;;;7.32;;
80732;SDS011;70130;44.534;18.678;2023-05-23T04:10:18;10.25;;;6.30;;
80732;SDS011;70130;44.534;18.678;2023-05-23T04:12:45;9.88;;;6.57;;
80732;SDS011;70130;44.534;18.678;2023-05-23T04:15:13;10.07;;;6.13;;
80732;SDS011;70130;44.534;18.678;2023-05-23T04:17:59;14.45;;;6.88;;
80732;SDS011;70130;44.534;18.678;2023-05-23T04:20:25;14.15;;;6.97;;
80732;SDS011;70130;44.534;18.678;2023-05-23T04:22:51;11.27;;;6.88;;
80732;SDS011;70130;44.534;18.678;2023-05-23T04:25:17;10.95;;;6.82;;
80732;SDS011;70130;44.534;18.678;2023-05-23T04:27:52;10.35;;;6.38;;
80732;SDS011;70130;44.534;18.678;2023-05-23T04:30:19;11.68;;;6.93;;
80732;SDS011;70130;44.534;18.678;2023-05-23T04:32:46;7.68;;;6.18;;
80732;SDS011;70130;44.534;18.678;2023-05-23T04:35:12;9.77;;;6.70;;
80732;SDS011;70130;44.534;18.678;2023-05-23T04:37:39;8.18;;;6.72;;
80732;SDS011;70130;44.534;18.678;2023-05-23T04:40:07;12.57;;;7.88;;
80732;SDS011;70130;44.534;18.678;2023-05-23T04:42:57;11.75;;;6.78;;
80732;SDS011;70130;44.534;18.678;2023-05-23T04:45:35;10.93;;;6.90;;
80732;SDS011;70130;44.534;18.678;2023-05-23T04:48:07;10.32;;;7.30;;
80732;SDS011;70130;44.534;18.678;2023-05-23T04:50:42;10.80;;;7.15;;
80732;SDS011;70130;44.534;18.678;2023-05-23T04:53:07;10.10;;;6.45;;
80732;SDS011;70130;44.534;18.678;2023-05-23T04:55:34;9.35;;;6.72;;
80732;SDS011;70130;44.534;18.678;2023-05-23T04:58:00;17.02;;;7.72;;
80732;SDS011;70130;44.534;18.678;2023-05-23T05:00:27;11.13;;;7.93;;
80732;SDS011;70130;44.534;18.678;2023-05-23T05:02:54;13.25;;;7.40;;
80732;SDS011;70130;44.534;18.678;2023-05-23T05:05:23;15.48;;;8.98;;
80732;SDS011;70130;44.534;18.678;2023-05-23T05:07:49;12.48;;;7.15;;
80732;SDS011;70130;44.534;18.678;2023-05-23T05:10:15;11.25;;;8.10;;
80732;SDS011;70130;44.534;18.678;2023-05-23T05:12:43;15.25;;;10.00;;
80732;SDS011;70130;44.534;18.678;2023-05-23T05:15:17;18.95;;;11.00;;
80732;SDS011;70130;44.534;18.678;2023-05-23T05:17:46;16.67;;;9.18;;
80732;SDS011;70130;44.534;18.678;2023-05-23T05:20:15;12.75;;;8.35;;
80732;SDS011;70130;44.534;18.678;2023-05-23T05:22:41;11.48;;;8.23;;
80732;SDS011;70130;44.534;18.678;2023-05-23T05:25:10;13.90;;;8.43;;
80732;SDS011;70130;44.534;18.678;2023-05-23T05:27:36;13.90;;;8.18;;
80732;SDS011;70130;44.534;18.678;2023-05-23T05:30:06;16.20;;;8.18;;
80732;SDS011;70130;44.534;18.678;2023-05-23T05:32:40;13.50;;;7.93;;
80732;SDS011;70130;44.534;18.678;2023-05-23T05:35:10;17.27;;;9.60;;
80732;SDS011;70130;44.534;18.678;2023-05-23T05:37:39;14.43;;;9.95;;
80732;SDS011;70130;44.534;18.678;2023-05-23T05:40:06;11.65;;;8.63;;
80732;SDS011;70130;44.534;18.678;2023-05-23T05:42:34;16.13;;;8.80;;
80732;SDS011;70130;44.534;18.678;2023-05-23T05:45:00;12.43;;;8.30;;
80732;SDS011;70130;44.534;18.678;2023-05-23T05:47:27;19.77;;;8.23;;
80732;SDS011;70130;44.534;18.678;2023-05-23T05:49:52;12.65;;;8.00;;
80732;SDS011;70130;44.534;18.678;2023-05-23T05:52:18;12.50;;;8.27;;
80732;SDS011;70130;44.534;18.678;2023-05-23T05:54:44;12.80;;;8.50;;
80732;SDS011;70130;44.534;18.678;2023-05-23T05:57:10;12.13;;;8.05;;
80732;SDS011;70130;44.534;18.678;2023-05-23T05:59:36;11.07;;;8.05;;
80732;SDS011;70130;44.534;18.678;2023-05-23T06:02:01;12.27;;;7.50;;
80732;SDS011;70130;44.534;18.678;2023-05-23T06:04:27;9.27;;;7.25;;
80732;SDS011;70130;44.534;18.678;2023-05-23T06:06:55;10.82;;;7.28;;
80732;SDS011;70130;44.534;18.678;2023-05-23T06:09:22;9.43;;;6.30;;
80732;SDS011;70130;44.534;18.678;2023-05-23T06:11:48;12.85;;;7.53;;
80732;SDS011;70130;44.534;18.678;2023-05-23T06:14:14;8.43;;;6.28;;
80732;SDS011;70130;44.534;18.678;2023-05-23T06:16:42;11.70;;;7.90;;
80732;SDS011;70130;44.534;18.678;2023-05-23T06:19:08;10.25;;;6.68;;
80732;SDS011;70130;44.534;18.678;2023-05-23T06:21:35;8.88;;;5.85;;
80732;SDS011;70130;44.534;18.678;2023-05-23T06:24:03;13.10;;;8.50;;
80732;SDS011;70130;44.534;18.678;2023-05-23T06:26:29;11.43;;;6.75;;
80732;SDS011;70130;44.534;18.678;2023-05-23T06:28:55;8.98;;;6.22;;
80732;SDS011;70130;44.534;18.678;2023-05-23T06:31:21;8.85;;;6.13;;
80732;SDS011;70130;44.534;18.678;2023-05-23T06:33:47;9.90;;;6.40;;
80732;SDS011;70130;44.534;18.678;2023-05-23T06:36:12;8.10;;;6.25;;
80732;SDS011;70130;44.534;18.678;2023-05-23T06:38:38;9.48;;;6.60;;
80732;SDS011;70130;44.534;18.678;2023-05-23T06:41:04;12.10;;;8.38;;
80732;SDS011;70130;44.534;18.678;2023-05-23T06:43:32;11.15;;;7.90;;
80732;SDS011;70130;44.534;18.678;2023-05-23T06:46:33;11.95;;;7.78;;
80732;SDS011;70130;44.534;18.678;2023-05-23T06:49:00;10.98;;;7.43;;
80732;SDS011;70130;44.534;18.678;2023-05-23T06:51:26;9.45;;;7.15;;
80732;SDS011;70130;44.534;18.678;2023-05-23T06:53:52;11.00;;;7.57;;
80732;SDS011;70130;44.534;18.678;2023-05-23T06:56:17;15.10;;;8.38;;
80732;SDS011;70130;44.534;18.678;2023-05-23T06:58:52;12.10;;;7.78;;
80732;SDS011;70130;44.534;18.678;2023-05-23T07:01:21;11.40;;;7.18;;
80732;SDS011;70130;44.534;18.678;2023-05-23T07:03:47;9.18;;;6.20;;
80732;SDS011;70130;44.534;18.678;2023-05-23T07:06:13;9.60;;;8.15;;
80732;SDS011;70130;44.534;18.678;2023-05-23T07:08:39;10.60;;;7.10;;
80732;SDS011;70130;44.534;18.678;2023-05-23T07:11:05;14.45;;;7.80;;
80732;SDS011;70130;44.534;18.678;2023-05-23T07:13:51;10.25;;;7.57;;
80732;SDS011;70130;44.534;18.678;2023-05-23T07:16:28;14.05;;;8.18;;
80732;SDS011;70130;44.534;18.678;2023-05-23T07:19:00;17.95;;;9.73;;
80732;SDS011;70130;44.534;18.678;2023-05-23T07:21:28;19.00;;;9.93;;
80732;SDS011;70130;44.534;18.678;2023-05-23T07:23:55;29.60;;;10.18;;
80732;SDS011;70130;44.534;18.678;2023-05-23T07:26:21;17.92;;;8.73;;
80732;SDS011;70130;44.534;18.678;2023-05-23T07:28:50;10.10;;;7.72;;
80732;SDS011;70130;44.534;18.678;2023-05-23T07:31:17;8.52;;;6.30;;
80732;SDS011;70130;44.534;18.678;2023-05-23T07:33:43;13.10;;;7.07;;
80732;SDS011;70130;44.534;18.678;2023-05-23T07:36:14;9.63;;;7.30;;
80732;SDS011;70130;44.534;18.678;2023-05-23T07:38:41;8.65;;;6.43;;
80732;SDS011;70130;44.534;18.678;2023-05-23T07:41:07;9.15;;;6.50;;
80732;SDS011;70130;44.534;18.678;2023-05-23T07:43:33;11.93;;;8.80;;
80732;SDS011;70130;44.534;18.678;2023-05-23T07:46:00;8.85;;;6.40;;
80732;SDS011;70130;44.534;18.678;2023-05-23T07:48:26;10.10;;;5.90;;
80732;SDS011;70130;44.534;18.678;2023-05-23T07:50:51;11.85;;;5.72;;
80732;SDS011;70130;44.534;18.678;2023-05-23T07:53:20;10.20;;;6.65;;
80732;SDS011;70130;44.534;18.678;2023-05-23T07:55:47;16.48;;;8.32;;
80732;SDS011;70130;44.534;18.678;2023-05-23T07:58:13;13.13;;;8.77;;
80732;SDS011;70130;44.534;18.678;2023-05-23T08:00:40;12.18;;;7.00;;
80732;SDS011;70130;44.534;18.678;2023-05-23T08:03:16;9.48;;;6.55;;
80732;SDS011;70130;44.534;18.678;2023-05-23T08:05:53;9.85;;;6.43;;
80732;SDS011;70130;44.534;18.678;2023-05-23T08:08:19;10.55;;;6.78;;
80732;SDS011;70130;44.534;18.678;2023-05-23T08:10:45;12.77;;;7.88;;
80732;SDS011;70130;44.534;18.678;2023-05-23T08:13:20;13.15;;;8.63;;
80732;SDS011;70130;44.534;18.678;2023-05-23T08:16:06;15.25;;;9.20;;
80732;SDS011;70130;44.534;18.678;2023-05-23T08:18:31;12.35;;;7.28;;
80732;SDS011;70130;44.534;18.678;2023-05-23T08:20:57;11.95;;;6.50;;
80732;SDS011;70130;44.534;18.678;2023-05-23T08:23:24;8.25;;;5.30;;
80732;SDS011;70130;44.534;18.678;2023-05-23T08:25:51;9.55;;;6.00;;
80732;SDS011;70130;44.534;18.678;2023-05-23T08:28:19;8.73;;;5.88;;
80732;SDS011;70130;44.534;18.678;2023-05-23T08:30:51;7.43;;;6.15;;
80732;SDS011;70130;44.534;18.678;2023-05-23T08:33:18;7.50;;;5.50;;
80732;SDS011;70130;44.534;18.678;2023-05-23T08:35:46;7.55;;;4.78;;
80732;SDS011;70130;44.534;18.678;2023-05-23T08:38:12;8.40;;;6.28;;
80732;SDS011;70130;44.534;18.678;2023-05-23T08:40:49;10.10;;;5.80;;
80732;SDS011;70130;44.534;18.678;2023-05-23T08:43:20;10.30;;;6.00;;
80732;SDS011;70130;44.534;18.678;2023-05-23T08:45:46;12.35;;;6.05;;
80732;SDS011;70130;44.534;18.678;2023-05-23T08:48:15;10.55;;;5.10;;
80732;SDS011;70130;44.534;18.678;2023-05-23T08:53:14;6.18;;;4.78;;
80732;SDS011;70130;44.534;18.678;2023-05-23T08:55:46;7.68;;;5.03;;
80732;SDS011;70130;44.534;18.678;2023-05-23T08:58:17;9.00;;;4.63;;
80732;SDS011;70130;44.534;18.678;2023-05-23T09:00:52;7.38;;;5.57;;
80732;SDS011;70130;44.534;18.678;2023-05-23T09:03:19;6.65;;;4.72;;
80732;SDS011;70130;44.534;18.678;2023-05-23T09:05:58;5.75;;;5.03;;
80732;SDS011;70130;44.534;18.678;2023-05-23T09:08:23;9.07;;;5.43;;
80732;SDS011;70130;44.534;18.678;2023-05-23T09:10:53;7.18;;;5.28;;
80732;SDS011;70130;44.534;18.678;2023-05-23T09:13:20;11.05;;;5.93;;
80732;SDS011;70130;44.534;18.678;2023-05-23T09:16:04;7.25;;;5.10;;
80732;SDS011;70130;44.534;18.678;2023-05-23T09:18:38;7.75;;;5.15;;
80732;SDS011;70130;44.534;18.678;2023-05-23T09:21:06;6.22;;;5.00;;
80732;SDS011;70130;44.534;18.678;2023-05-23T09:23:35;11.00;;;7.45;;
80732;SDS011;70130;44.534;18.678;2023-05-23T09:26:05;8.45;;;5.72;;
80732;SDS011;70130;44.534;18.678;2023-05-23T09:28:33;7.30;;;5.15;;
80732;SDS011;70130;44.534;18.678;2023-05-23T09:31:00;7.93;;;5.32;;
80732;SDS011;70130;44.534;18.678;2023-05-23T09:33:33;9.98;;;5.47;;
80732;SDS011;70130;44.534;18.678;2023-05-23T09:36:12;13.48;;;8.75;;
80732;SDS011;70130;44.534;18.678;2023-05-23T09:38:39;8.60;;;6.70;;
80732;SDS011;70130;44.534;18.678;2023-05-23T09:41:06;6.55;;;5.32;;
80732;SDS011;70130;44.534;18.678;2023-05-23T09:43:32;8.57;;;6.60;;
80732;SDS011;70130;44.534;18.678;2023-05-23T09:46:11;11.93;;;9.18;;
80732;SDS011;70130;44.534;18.678;2023-05-23T09:48:37;14.88;;;8.18;;
80732;SDS011;70130;44.534;18.678;2023-05-23T09:51:04;15.43;;;9.82;;
80732;SDS011;70130;44.534;18.678;2023-05-23T09:53:31;13.85;;;8.13;;
80732;SDS011;70130;44.534;18.678;2023-05-23T09:55:57;11.07;;;7.53;;
80732;SDS011;70130;44.534;18.678;2023-05-23T09:58:25;10.52;;;7.40;;
80732;SDS011;70130;44.534;18.678;2023-05-23T10:00:54;8.18;;;5.22;;
80732;SDS011;70130;44.534;18.678;2023-05-23T10:03:55;9.68;;;6.00;;
80732;SDS011;70130;44.534;18.678;2023-05-23T10:06:16;6.53;;;5.10;;
80732;SDS011;70130;44.534;18.678;2023-05-23T10:08:54;7.30;;;5.63;;
80732;SDS011;70130;44.534;18.678;2023-05-23T10:13:58;9.60;;;5.60;;
80732;SDS011;70130;44.534;18.678;2023-05-23T10:19:55;8.43;;;6.03;;
80732;SDS011;70130;44.534;18.678;2023-05-23T10:22:33;9.77;;;6.95;;
80732;SDS011;70130;44.534;18.678;2023-05-23T10:25:01;9.93;;;7.75;;
80732;SDS011;70130;44.534;18.678;2023-05-23T10:27:28;5.63;;;4.82;;
80732;SDS011;70130;44.534;18.678;2023-05-23T10:29:55;8.43;;;4.50;;
80732;SDS011;70130;44.534;18.678;2023-05-23T10:32:22;9.13;;;6.07;;
80732;SDS011;70130;44.534;18.678;2023-05-23T10:37:23;6.45;;;4.60;;
80732;SDS011;70130;44.534;18.678;2023-05-23T10:45:13;7.38;;;5.80;;
80732;SDS011;70130;44.534;18.678;2023-05-23T10:47:40;10.07;;;6.10;;
80732;SDS011;70130;44.534;18.678;2023-05-23T10:50:06;7.07;;;5.07;;
80732;SDS011;70130;44.534;18.678;2023-05-23T10:52:38;6.72;;;4.80;;
80732;SDS011;70130;44.534;18.678;2023-05-23T10:55:12;6.10;;;4.88;;
80732;SDS011;70130;44.534;18.678;2023-05-23T10:57:39;8.35;;;5.22;;
80732;SDS011;70130;44.534;18.678;2023-05-23T11:00:11;7.13;;;5.03;;
80732;SDS011;70130;44.534;18.678;2023-05-23T11:02:52;10.05;;;6.13;;
80732;SDS011;70130;44.534;18.678;2023-05-23T11:05:22;6.20;;;5.22;;
80732;SDS011;70130;44.534;18.678;2023-05-23T11:08:06;6.93;;;5.68;;
80732;SDS011;70130;44.534;18.678;2023-05-23T11:10:59;6.80;;;4.88;;
80732;SDS011;70130;44.534;18.678;2023-05-23T11:16:26;8.25;;;6.15;;
80732;SDS011;70130;44.534;18.678;2023-05-23T11:18:56;9.38;;;5.63;;
80732;SDS011;70130;44.534;18.678;2023-05-23T11:21:44;7.65;;;4.97;;
80732;SDS011;70130;44.534;18.678;2023-05-23T11:24:22;6.85;;;5.47;;
80732;SDS011;70130;44.534;18.678;2023-05-23T11:26:56;6.28;;;4.40;;
80732;SDS011;70130;44.534;18.678;2023-05-23T11:29:26;7.57;;;5.22;;
80732;SDS011;70130;44.534;18.678;2023-05-23T11:31:53;6.97;;;4.68;;
80732;SDS011;70130;44.534;18.678;2023-05-23T11:34:20;4.55;;;4.03;;
80732;SDS011;70130;44.534;18.678;2023-05-23T11:36:46;10.38;;;6.18;;
80732;SDS011;70130;44.534;18.678;2023-05-23T11:39:18;7.07;;;4.70;;
80732;SDS011;70130;44.534;18.678;2023-05-23T11:41:49;9.32;;;5.43;;
80732;SDS011;70130;44.534;18.678;2023-05-23T11:44:22;6.60;;;4.82;;
80732;SDS011;70130;44.534;18.678;2023-05-23T11:47:01;9.00;;;5.22;;
80732;SDS011;70130;44.534;18.678;2023-05-23T11:49:28;5.72;;;5.18;;
80732;SDS011;70130;44.534;18.678;2023-05-23T11:51:55;6.50;;;5.15;;
80732;SDS011;70130;44.534;18.678;2023-05-23T11:54:23;9.88;;;4.80;;
80732;SDS011;70130;44.534;18.678;2023-05-23T11:56:51;7.78;;;5.72;;
80732;SDS011;70130;44.534;18.678;2023-05-23T11:59:17;8.40;;;5.53;;
80732;SDS011;70130;44.534;18.678;2023-05-23T12:01:43;10.80;;;5.80;;
80732;SDS011;70130;44.534;18.678;2023-05-23T12:04:09;5.35;;;4.55;;
80732;SDS011;70130;44.534;18.678;2023-05-23T12:06:41;6.40;;;4.70;;
80732;SDS011;70130;44.534;18.678;2023-05-23T12:09:07;5.22;;;4.47;;
80732;SDS011;70130;44.534;18.678;2023-05-23T12:11:35;7.90;;;4.75;;
80732;SDS011;70130;44.534;18.678;2023-05-23T12:14:03;8.93;;;4.57;;
80732;SDS011;70130;44.534;18.678;2023-05-23T12:16:31;7.40;;;4.50;;
80732;SDS011;70130;44.534;18.678;2023-05-23T12:18:58;18.80;;;6.15;;
80732;SDS011;70130;44.534;18.678;2023-05-23T12:21:25;5.35;;;4.65;;
80732;SDS011;70130;44.534;18.678;2023-05-23T12:24:43;8.38;;;5.30;;
80732;SDS011;70130;44.534;18.678;2023-05-23T12:27:00;31.10;;;8.00;;
80732;SDS011;70130;44.534;18.678;2023-05-23T12:29:30;6.25;;;4.53;;
80732;SDS011;70130;44.534;18.678;2023-05-23T12:31:57;9.93;;;5.72;;
80732;SDS011;70130;44.534;18.678;2023-05-23T12:34:24;7.57;;;4.80;;
80732;SDS011;70130;44.534;18.678;2023-05-23T12:36:56;8.57;;;4.60;;
80732;SDS011;70130;44.534;18.678;2023-05-23T12:39:32;4.93;;;4.43;;
80732;SDS011;70130;44.534;18.678;2023-05-23T12:42:06;6.82;;;4.18;;
80732;SDS011;70130;44.534;18.678;2023-05-23T12:44:36;5.60;;;4.40;;
80732;SDS011;70130;44.534;18.678;2023-05-23T12:47:02;7.90;;;4.47;;
80732;SDS011;70130;44.534;18.678;2023-05-23T12:49:28;6.55;;;4.90;;
80732;SDS011;70130;44.534;18.678;2023-05-23T12:51:53;11.05;;;5.10;;
80732;SDS011;70130;44.534;18.678;2023-05-23T12:54:19;6.65;;;4.45;;
80732;SDS011;70130;44.534;18.678;2023-05-23T12:56:45;5.88;;;4.78;;
80732;SDS011;70130;44.534;18.678;2023-05-23T12:59:11;7.57;;;5.88;;
80732;SDS011;70130;44.534;18.678;2023-05-23T13:01:37;9.70;;;6.10;;
80732;SDS011;70130;44.534;18.678;2023-05-23T13:04:03;6.72;;;5.30;;
80732;SDS011;70130;44.534;18.678;2023-05-23T13:06:28;8.45;;;4.53;;
80732;SDS011;70130;44.534;18.678;2023-05-23T13:08:54;6.00;;;4.88;;
80732;SDS011;70130;44.534;18.678;2023-05-23T13:11:20;7.60;;;5.85;;
80732;SDS011;70130;44.534;18.678;2023-05-23T13:13:49;9.77;;;6.20;;
80732;SDS011;70130;44.534;18.678;2023-05-23T13:16:16;6.53;;;5.13;;
80732;SDS011;70130;44.534;18.678;2023-05-23T13:18:41;6.30;;;4.18;;
80732;SDS011;70130;44.534;18.678;2023-05-23T13:21:07;6.25;;;4.80;;
80732;SDS011;70130;44.534;18.678;2023-05-23T13:23:33;8.77;;;5.72;;
80732;SDS011;70130;44.534;18.678;2023-05-23T13:26:00;8.32;;;5.18;;
80732;SDS011;70130;44.534;18.678;2023-05-23T13:28:26;6.57;;;4.50;;
80732;SDS011;70130;44.534;18.678;2023-05-23T13:30:52;6.95;;;4.15;;
80732;SDS011;70130;44.534;18.678;2023-05-23T13:33:18;6.03;;;5.03;;
80732;SDS011;70130;44.534;18.678;2023-05-23T13:35:43;9.13;;;5.65;;
80732;SDS011;70130;44.534;18.678;2023-05-23T13:38:09;10.55;;;5.32;;
80732;SDS011;70130;44.534;18.678;2023-05-23T13:40:35;6.32;;;4.45;;
80732;SDS011;70130;44.534;18.678;2023-05-23T13:43:01;7.40;;;4.75;;
80732;SDS011;70130;44.534;18.678;2023-05-23T13:45:27;7.45;;;5.10;;
80732;SDS011;70130;44.534;18.678;2023-05-23T13:47:54;5.15;;;4.63;;
80732;SDS011;70130;44.534;18.678;2023-05-23T13:50:19;6.88;;;4.70;;
80732;SDS011;70130;44.534;18.678;2023-05-23T13:52:45;6.78;;;5.68;;
80732;SDS011;70130;44.534;18.678;2023-05-23T13:55:11;6.97;;;5.63;;
80732;SDS011;70130;44.534;18.678;2023-05-23T13:57:37;7.30;;;5.50;;
80732;SDS011;70130;44.534;18.678;2023-05-23T14:00:03;9.52;;;5.22;;
80732;SDS011;70130;44.534;18.678;2023-05-23T14:02:29;7.13;;;4.78;;
80732;SDS011;70130;44.534;18.678;2023-05-23T14:04:58;5.45;;;4.85;;
80732;SDS011;70130;44.534;18.678;2023-05-23T14:07:24;9.30;;;5.28;;
80732;SDS011;70130;44.534;18.678;2023-05-23T14:09:49;7.03;;;4.80;;
80732;SDS011;70130;44.534;18.678;2023-05-23T14:12:15;7.35;;;4.78;;
80732;SDS011;70130;44.534;18.678;2023-05-23T14:14:41;7.75;;;5.28;;
80732;SDS011;70130;44.534;18.678;2023-05-23T14:17:06;6.60;;;4.72;;
80732;SDS011;70130;44.534;18.678;2023-05-23T14:19:32;6.65;;;4.53;;
80732;SDS011;70130;44.534;18.678;2023-05-23T14:21:57;6.60;;;4.30;;
80732;SDS011;70130;44.534;18.678;2023-05-23T14:24:23;6.18;;;4.90;;
80732;SDS011;70130;44.534;18.678;2023-05-23T14:26:49;6.95;;;4.70;;
80732;SDS011;70130;44.534;18.678;2023-05-23T14:29:15;4.97;;;4.57;;
80732;SDS011;70130;44.534;18.678;2023-05-23T14:31:40;5.88;;;4.70;;
80732;SDS011;70130;44.534;18.678;2023-05-23T14:34:06;8.80;;;5.28;;
80732;SDS011;70130;44.534;18.678;2023-05-23T14:36:32;11.93;;;9.73;;
80732;SDS011;70130;44.534;18.678;2023-05-23T14:38:57;7.63;;;5.60;;
80732;SDS011;70130;44.534;18.678;2023-05-23T14:41:25;5.68;;;4.63;;
80732;SDS011;70130;44.534;18.678;2023-05-23T14:43:51;6.15;;;5.00;;
80732;SDS011;70130;44.534;18.678;2023-05-23T14:46:16;6.45;;;4.50;;
80732;SDS011;70130;44.534;18.678;2023-05-23T14:48:42;6.13;;;4.68;;
80732;SDS011;70130;44.534;18.678;2023-05-23T14:51:08;8.63;;;5.20;;
80732;SDS011;70130;44.534;18.678;2023-05-23T14:53:34;6.70;;;4.63;;
80732;SDS011;70130;44.534;18.678;2023-05-23T14:56:00;9.70;;;4.57;;
80732;SDS011;70130;44.534;18.678;2023-05-23T14:58:25;4.43;;;3.50;;
80732;SDS011;70130;44.534;18.678;2023-05-23T15:00:52;4.82;;;4.20;;